sensor_id;sensor_type;location;lat;lon;timestamp;P1;durP1;ratioP1;P2;durP2;ratioP2
13122;SDS011;6627;50.920;12.050;2023-05-10T00:01:41;10.43;;;5.50;;
13122;SDS011;6627;50.920;12.050;2023-05-10T00:04:09;7.80;;;5.60;;
13122;SDS011;6627;50.920;12.050;2023-05-10T00:06:37;9.23;;;5.53;;
13122;SDS011;6627;50.920;12.050;2023-05-10T00:09:05;8.77;;;5.50;;
13122;SDS011;6627;50.920;12.050;2023-05-10T00:11:33;10.17;;;5.77;;
13122;SDS011;6627;50.920;12.050;2023-05-10T00:14:02;8.43;;;4.97;;
13122;SDS011;6627;50.920;12.050;2023-05-10T00:16:30;7.33;;;4.53;;
13122;SDS011;6627;50.920;12.050;2023-05-10T00:18:57;5.50;;;4.50;;
13122;SDS011;6627;50.920;12.050;2023-05-10T00:21:24;5.47;;;4.20;;
13122;SDS011;6627;50.920;12.050;2023-05-10T00:23:53;6.03;;;4.10;;
13122;SDS011;6627;50.920;12.050;2023-05-10T00:26:22;5.53;;;3.93;;
13122;SDS011;6627;50.920;12.050;2023-05-10T00:28:49;8.00;;;3.47;;
13122;SDS011;6627;50.920;12.050;2023-05-10T00:31:17;4.90;;;3.97;;
13122;SDS011;6627;50.920;12.050;2023-05-10T00:33:45;4.67;;;3.97;;
13122;SDS011;6627;50.920;12.050;2023-05-10T00:36:13;5.93;;;4.27;;
13122;SDS011;6627;50.920;12.050;2023-05-10T00:38:40;4.90;;;4.40;;
13122;SDS011;6627;50.920;12.050;2023-05-10T00:41:07;7.30;;;4.70;;
13122;SDS011;6627;50.920;12.050;2023-05-10T00:43:36;7.20;;;4.50;;
13122;SDS011;6627;50.920;12.050;2023-05-10T00:46:03;5.97;;;4.00;;
13122;SDS011;6627;50.920;12.050;2023-05-10T00:48:31;7.37;;;4.87;;
13122;SDS011;6627;50.920;12.050;2023-05-10T00:50:59;6.27;;;4.73;;
13122;SDS011;6627;50.920;12.050;2023-05-10T00:53:27;9.43;;;4.97;;
13122;SDS011;6627;50.920;12.050;2023-05-10T00:55:57;5.20;;;4.70;;
13122;SDS011;6627;50.920;12.050;2023-05-10T00:58:25;9.33;;;4.97;;
13122;SDS011;6627;50.920;12.050;2023-05-10T01:00:57;6.03;;;4.80;;
13122;SDS011;6627;50.920;12.050;2023-05-10T01:03:27;6.63;;;4.77;;
13122;SDS011;6627;50.920;12.050;2023-05-10T01:05:55;5.33;;;4.83;;
13122;SDS011;6627;50.920;12.050;2023-05-10T01:08:22;7.43;;;4.90;;
13122;SDS011;6627;50.920;12.050;2023-05-10T01:10:50;6.53;;;4.80;;
13122;SDS011;6627;50.920;12.050;2023-05-10T01:13:25;9.33;;;4.40;;
13122;SDS011;6627;50.920;12.050;2023-05-10T01:16:01;10.77;;;5.53;;
13122;SDS011;6627;50.920;12.050;2023-05-10T01:18:29;5.83;;;4.77;;
13122;SDS011;6627;50.920;12.050;2023-05-10T01:21:02;7.97;;;5.40;;
13122;SDS011;6627;50.920;12.050;2023-05-10T01:23:45;7.40;;;4.60;;
13122;SDS011;6627;50.920;12.050;2023-05-10T01:30:05;7.93;;;4.87;;
13122;SDS011;6627;50.920;12.050;2023-05-10T01:33:11;10.03;;;5.03;;
13122;SDS011;6627;50.920;12.050;2023-05-10T01:35:47;9.90;;;5.37;;
13122;SDS011;6627;50.920;12.050;2023-05-10T01:38:38;7.77;;;5.00;;
13122;SDS011;6627;50.920;12.050;2023-05-10T01:41:17;6.00;;;5.23;;
13122;SDS011;6627;50.920;12.050;2023-05-10T01:43:52;10.13;;;5.73;;
13122;SDS011;6627;50.920;12.050;2023-05-10T01:46:31;6.70;;;5.20;;
13122;SDS011;6627;50.920;12.050;2023-05-10T01:49:07;10.30;;;5.53;;
13122;SDS011;6627;50.920;12.050;2023-05-10T01:51:39;8.50;;;5.47;;
13122;SDS011;6627;50.920;12.050;2023-05-10T01:54:14;6.73;;;5.17;;
13122;SDS011;6627;50.920;12.050;2023-05-10T01:56:47;9.43;;;5.47;;
13122;SDS011;6627;50.920;12.050;2023-05-10T01:59:23;5.67;;;5.00;;
13122;SDS011;6627;50.920;12.050;2023-05-10T02:01:57;12.23;;;4.90;;
13122;SDS011;6627;50.920;12.050;2023-05-10T02:04:29;9.53;;;5.30;;
13122;SDS011;6627;50.920;12.050;2023-05-10T02:06:57;7.33;;;5.27;;
13122;SDS011;6627;50.920;12.050;2023-05-10T02:09:25;13.80;;;6.40;;
13122;SDS011;6627;50.920;12.050;2023-05-10T02:11:56;9.03;;;5.50;;
13122;SDS011;6627;50.920;12.050;2023-05-10T02:14:28;8.17;;;4.97;;
13122;SDS011;6627;50.920;12.050;2023-05-10T02:16:58;9.03;;;4.70;;
13122;SDS011;6627;50.920;12.050;2023-05-10T02:19:29;8.20;;;5.23;;
13122;SDS011;6627;50.920;12.050;2023-05-10T02:21:58;9.37;;;5.13;;
13122;SDS011;6627;50.920;12.050;2023-05-10T02:24:28;7.93;;;5.43;;
13122;SDS011;6627;50.920;12.050;2023-05-10T02:26:56;10.30;;;4.93;;
13122;SDS011;6627;50.920;12.050;2023-05-10T02:29:25;16.50;;;5.63;;
13122;SDS011;6627;50.920;12.050;2023-05-10T02:31:55;16.17;;;6.10;;
13122;SDS011;6627;50.920;12.050;2023-05-10T02:34:26;21.73;;;5.93;;
13122;SDS011;6627;50.920;12.050;2023-05-10T02:36:55;28.23;;;7.00;;
13122;SDS011;6627;50.920;12.050;2023-05-10T02:39:24;28.67;;;7.23;;
13122;SDS011;6627;50.920;12.050;2023-05-10T02:41:55;24.53;;;7.60;;
13122;SDS011;6627;50.920;12.050;2023-05-10T02:44:24;23.07;;;7.20;;
13122;SDS011;6627;50.920;12.050;2023-05-10T02:46:56;31.40;;;7.57;;
13122;SDS011;6627;50.920;12.050;2023-05-10T02:49:24;25.77;;;8.47;;
13122;SDS011;6627;50.920;12.050;2023-05-10T02:51:53;24.77;;;7.30;;
13122;SDS011;6627;50.920;12.050;2023-05-10T02:54:30;32.70;;;8.60;;
13122;SDS011;6627;50.920;12.050;2023-05-10T02:57:04;19.37;;;5.57;;
13122;SDS011;6627;50.920;12.050;2023-05-10T02:59:34;13.33;;;5.37;;
13122;SDS011;6627;50.920;12.050;2023-05-10T03:02:02;7.17;;;5.33;;
13122;SDS011;6627;50.920;12.050;2023-05-10T03:04:30;5.97;;;4.27;;
13122;SDS011;6627;50.920;12.050;2023-05-10T03:06:58;8.43;;;4.60;;
13122;SDS011;6627;50.920;12.050;2023-05-10T03:09:26;8.67;;;4.70;;
13122;SDS011;6627;50.920;12.050;2023-05-10T03:11:55;6.10;;;4.30;;
13122;SDS011;6627;50.920;12.050;2023-05-10T03:14:33;12.90;;;4.90;;
13122;SDS011;6627;50.920;12.050;2023-05-10T03:17:15;12.53;;;5.23;;
13122;SDS011;6627;50.920;12.050;2023-05-10T03:19:52;6.10;;;4.27;;
13122;SDS011;6627;50.920;12.050;2023-05-10T03:22:25;7.97;;;4.87;;
13122;SDS011;6627;50.920;12.050;2023-05-10T03:24:57;9.17;;;4.67;;
13122;SDS011;6627;50.920;12.050;2023-05-10T03:27:30;13.13;;;4.37;;
13122;SDS011;6627;50.920;12.050;2023-05-10T03:30:00;5.93;;;4.20;;
13122;SDS011;6627;50.920;12.050;2023-05-10T03:32:29;4.90;;;4.40;;
13122;SDS011;6627;50.920;12.050;2023-05-10T03:35:00;5.97;;;4.47;;
13122;SDS011;6627;50.920;12.050;2023-05-10T03:37:29;8.73;;;4.37;;
13122;SDS011;6627;50.920;12.050;2023-05-10T03:39:57;9.13;;;5.07;;
13122;SDS011;6627;50.920;12.050;2023-05-10T03:42:24;4.47;;;4.07;;
13122;SDS011;6627;50.920;12.050;2023-05-10T03:44:52;5.67;;;4.33;;
13122;SDS011;6627;50.920;12.050;2023-05-10T03:47:19;5.87;;;4.30;;
13122;SDS011;6627;50.920;12.050;2023-05-10T03:49:46;5.90;;;4.33;;
13122;SDS011;6627;50.920;12.050;2023-05-10T03:52:15;7.33;;;4.27;;
13122;SDS011;6627;50.920;12.050;2023-05-10T03:54:43;5.33;;;4.10;;
13122;SDS011;6627;50.920;12.050;2023-05-10T03:57:11;5.93;;;4.30;;
13122;SDS011;6627;50.920;12.050;2023-05-10T03:59:38;9.70;;;4.23;;
13122;SDS011;6627;50.920;12.050;2023-05-10T04:02:05;4.57;;;3.97;;
13122;SDS011;6627;50.920;12.050;2023-05-10T04:04:32;6.90;;;3.70;;
13122;SDS011;6627;50.920;12.050;2023-05-10T04:06:59;7.70;;;4.30;;
13122;SDS011;6627;50.920;12.050;2023-05-10T04:09:27;7.57;;;4.50;;
13122;SDS011;6627;50.920;12.050;2023-05-10T04:11:55;4.63;;;3.93;;
13122;SDS011;6627;50.920;12.050;2023-05-10T04:14:22;5.30;;;4.23;;
13122;SDS011;6627;50.920;12.050;2023-05-10T04:16:49;7.50;;;4.40;;
13122;SDS011;6627;50.920;12.050;2023-05-10T04:19:17;5.00;;;3.87;;
13122;SDS011;6627;50.920;12.050;2023-05-10T04:21:44;6.00;;;4.03;;
13122;SDS011;6627;50.920;12.050;2023-05-10T04:24:12;5.27;;;4.10;;
13122;SDS011;6627;50.920;12.050;2023-05-10T04:26:39;7.50;;;4.20;;
13122;SDS011;6627;50.920;12.050;2023-05-10T04:29:07;6.93;;;4.27;;
13122;SDS011;6627;50.920;12.050;2023-05-10T04:31:35;7.97;;;4.30;;
13122;SDS011;6627;50.920;12.050;2023-05-10T04:34:03;6.90;;;4.60;;
13122;SDS011;6627;50.920;12.050;2023-05-10T04:36:31;6.27;;;3.93;;
13122;SDS011;6627;50.920;12.050;2023-05-10T04:39:00;6.00;;;3.77;;
13122;SDS011;6627;50.920;12.050;2023-05-10T04:41:29;6.13;;;3.87;;
13122;SDS011;6627;50.920;12.050;2023-05-10T04:43:57;5.57;;;3.80;;
13122;SDS011;6627;50.920;12.050;2023-05-10T04:46:26;5.00;;;3.80;;
13122;SDS011;6627;50.920;12.050;2023-05-10T04:48:54;8.43;;;3.90;;
13122;SDS011;6627;50.920;12.050;2023-05-10T04:51:21;5.60;;;3.90;;
13122;SDS011;6627;50.920;12.050;2023-05-10T04:53:49;4.27;;;3.77;;
13122;SDS011;6627;50.920;12.050;2023-05-10T04:56:16;4.87;;;3.93;;
13122;SDS011;6627;50.920;12.050;2023-05-10T04:58:43;7.00;;;4.20;;
13122;SDS011;6627;50.920;12.050;2023-05-10T05:01:10;5.03;;;3.90;;
13122;SDS011;6627;50.920;12.050;2023-05-10T05:03:39;5.73;;;4.03;;
13122;SDS011;6627;50.920;12.050;2023-05-10T05:06:07;5.27;;;3.60;;
13122;SDS011;6627;50.920;12.050;2023-05-10T05:08:35;11.53;;;3.83;;
13122;SDS011;6627;50.920;12.050;2023-05-10T05:11:03;7.13;;;4.20;;
13122;SDS011;6627;50.920;12.050;2023-05-10T05:13:30;8.87;;;4.37;;
13122;SDS011;6627;50.920;12.050;2023-05-10T05:15:59;7.40;;;4.00;;
13122;SDS011;6627;50.920;12.050;2023-05-10T05:18:27;6.97;;;4.17;;
13122;SDS011;6627;50.920;12.050;2023-05-10T05:20:56;11.83;;;4.07;;
13122;SDS011;6627;50.920;12.050;2023-05-10T05:23:24;5.33;;;4.17;;
13122;SDS011;6627;50.920;12.050;2023-05-10T05:25:52;5.17;;;3.93;;
13122;SDS011;6627;50.920;12.050;2023-05-10T05:28:20;15.10;;;4.10;;
13122;SDS011;6627;50.920;12.050;2023-05-10T05:30:47;9.23;;;4.20;;
13122;SDS011;6627;50.920;12.050;2023-05-10T05:33:15;7.23;;;3.80;;
13122;SDS011;6627;50.920;12.050;2023-05-10T05:35:42;5.77;;;3.80;;
13122;SDS011;6627;50.920;12.050;2023-05-10T05:38:14;9.13;;;4.00;;
13122;SDS011;6627;50.920;12.050;2023-05-10T05:40:41;8.10;;;3.87;;
13122;SDS011;6627;50.920;12.050;2023-05-10T05:43:09;6.97;;;3.80;;
13122;SDS011;6627;50.920;12.050;2023-05-10T05:45:36;4.93;;;4.10;;
13122;SDS011;6627;50.920;12.050;2023-05-10T05:48:04;4.97;;;3.47;;
13122;SDS011;6627;50.920;12.050;2023-05-10T05:50:31;6.67;;;3.60;;
13122;SDS011;6627;50.920;12.050;2023-05-10T05:52:59;4.47;;;3.60;;
13122;SDS011;6627;50.920;12.050;2023-05-10T05:55:29;4.20;;;3.63;;
13122;SDS011;6627;50.920;12.050;2023-05-10T05:57:57;4.57;;;3.60;;
13122;SDS011;6627;50.920;12.050;2023-05-10T06:00:24;5.03;;;3.60;;
13122;SDS011;6627;50.920;12.050;2023-05-10T06:02:53;7.37;;;3.80;;
13122;SDS011;6627;50.920;12.050;2023-05-10T06:05:20;5.80;;;3.63;;
13122;SDS011;6627;50.920;12.050;2023-05-10T06:07:48;6.07;;;3.73;;
13122;SDS011;6627;50.920;12.050;2023-05-10T06:10:16;4.43;;;3.87;;
13122;SDS011;6627;50.920;12.050;2023-05-10T06:12:46;4.87;;;3.80;;
13122;SDS011;6627;50.920;12.050;2023-05-10T06:15:13;6.97;;;3.53;;
13122;SDS011;6627;50.920;12.050;2023-05-10T06:17:42;7.57;;;4.20;;
13122;SDS011;6627;50.920;12.050;2023-05-10T06:20:10;7.43;;;4.40;;
13122;SDS011;6627;50.920;12.050;2023-05-10T06:22:39;8.47;;;5.20;;
13122;SDS011;6627;50.920;12.050;2023-05-10T06:25:07;6.83;;;5.03;;
13122;SDS011;6627;50.920;12.050;2023-05-10T06:27:36;7.40;;;5.60;;
13122;SDS011;6627;50.920;12.050;2023-05-10T06:30:05;10.37;;;5.70;;
13122;SDS011;6627;50.920;12.050;2023-05-10T06:32:34;11.40;;;5.93;;
13122;SDS011;6627;50.920;12.050;2023-05-10T06:35:02;7.83;;;6.13;;
13122;SDS011;6627;50.920;12.050;2023-05-10T06:37:29;7.07;;;5.90;;
13122;SDS011;6627;50.920;12.050;2023-05-10T06:39:57;11.63;;;6.37;;
13122;SDS011;6627;50.920;12.050;2023-05-10T06:42:25;9.30;;;6.57;;
13122;SDS011;6627;50.920;12.050;2023-05-10T06:44:52;14.50;;;6.77;;
13122;SDS011;6627;50.920;12.050;2023-05-10T06:47:21;9.23;;;6.40;;
13122;SDS011;6627;50.920;12.050;2023-05-10T06:49:48;7.53;;;6.57;;
13122;SDS011;6627;50.920;12.050;2023-05-10T06:52:15;10.07;;;6.80;;
13122;SDS011;6627;50.920;12.050;2023-05-10T06:54:43;9.03;;;6.67;;
13122;SDS011;6627;50.920;12.050;2023-05-10T06:57:11;7.93;;;5.80;;
13122;SDS011;6627;50.920;12.050;2023-05-10T06:59:38;7.80;;;5.67;;
13122;SDS011;6627;50.920;12.050;2023-05-10T07:02:05;10.03;;;6.20;;
13122;SDS011;6627;50.920;12.050;2023-05-10T07:04:35;8.40;;;5.97;;
13122;SDS011;6627;50.920;12.050;2023-05-10T07:07:02;8.90;;;5.90;;
13122;SDS011;6627;50.920;12.050;2023-05-10T07:09:30;10.30;;;5.20;;
13122;SDS011;6627;50.920;12.050;2023-05-10T07:11:58;9.77;;;5.57;;
13122;SDS011;6627;50.920;12.050;2023-05-10T07:14:27;6.53;;;5.23;;
13122;SDS011;6627;50.920;12.050;2023-05-10T07:16:55;6.13;;;4.47;;
13122;SDS011;6627;50.920;12.050;2023-05-10T07:19:23;6.07;;;5.00;;
13122;SDS011;6627;50.920;12.050;2023-05-10T07:21:53;6.33;;;4.47;;
13122;SDS011;6627;50.920;12.050;2023-05-10T07:24:20;9.73;;;4.67;;
13122;SDS011;6627;50.920;12.050;2023-05-10T07:26:48;6.50;;;4.50;;
13122;SDS011;6627;50.920;12.050;2023-05-10T07:29:16;5.57;;;5.07;;
13122;SDS011;6627;50.920;12.050;2023-05-10T07:31:43;6.07;;;5.17;;
13122;SDS011;6627;50.920;12.050;2023-05-10T07:34:11;6.10;;;4.87;;
13122;SDS011;6627;50.920;12.050;2023-05-10T07:36:38;5.73;;;4.50;;
13122;SDS011;6627;50.920;12.050;2023-05-10T07:39:09;5.13;;;4.63;;
13122;SDS011;6627;50.920;12.050;2023-05-10T07:41:36;6.57;;;5.13;;
13122;SDS011;6627;50.920;12.050;2023-05-10T07:46:33;5.80;;;5.07;;
13122;SDS011;6627;50.920;12.050;2023-05-10T07:49:00;8.87;;;5.57;;
13122;SDS011;6627;50.920;12.050;2023-05-10T07:51:28;7.50;;;5.73;;
13122;SDS011;6627;50.920;12.050;2023-05-10T07:53:55;6.67;;;5.10;;
13122;SDS011;6627;50.920;12.050;2023-05-10T07:56:25;6.47;;;5.40;;
13122;SDS011;6627;50.920;12.050;2023-05-10T07:58:56;6.03;;;5.43;;
13122;SDS011;6627;50.920;12.050;2023-05-10T08:01:25;6.20;;;5.60;;
13122;SDS011;6627;50.920;12.050;2023-05-10T08:03:56;8.07;;;5.83;;
13122;SDS011;6627;50.920;12.050;2023-05-10T08:06:24;7.00;;;5.73;;
13122;SDS011;6627;50.920;12.050;2023-05-10T08:08:53;6.60;;;5.93;;
13122;SDS011;6627;50.920;12.050;2023-05-10T08:11:21;6.27;;;5.63;;
13122;SDS011;6627;50.920;12.050;2023-05-10T08:13:50;6.37;;;5.73;;
13122;SDS011;6627;50.920;12.050;2023-05-10T08:16:18;7.87;;;5.93;;
13122;SDS011;6627;50.920;12.050;2023-05-10T08:18:47;6.73;;;6.03;;
13122;SDS011;6627;50.920;12.050;2023-05-10T08:21:15;6.87;;;6.10;;
13122;SDS011;6627;50.920;12.050;2023-05-10T08:23:43;6.90;;;5.80;;
13122;SDS011;6627;50.920;12.050;2023-05-10T08:26:11;6.57;;;5.87;;
13122;SDS011;6627;50.920;12.050;2023-05-10T08:28:38;7.30;;;5.87;;
13122;SDS011;6627;50.920;12.050;2023-05-10T08:31:07;7.43;;;6.00;;
13122;SDS011;6627;50.920;12.050;2023-05-10T08:33:35;6.13;;;5.43;;
13122;SDS011;6627;50.920;12.050;2023-05-10T08:36:02;7.07;;;6.37;;
13122;SDS011;6627;50.920;12.050;2023-05-10T08:38:31;7.20;;;5.90;;
13122;SDS011;6627;50.920;12.050;2023-05-10T08:40:58;6.67;;;5.97;;
13122;SDS011;6627;50.920;12.050;2023-05-10T08:43:29;6.23;;;5.63;;
13122;SDS011;6627;50.920;12.050;2023-05-10T08:45:59;6.10;;;5.50;;
13122;SDS011;6627;50.920;12.050;2023-05-10T08:48:29;6.67;;;5.97;;
13122;SDS011;6627;50.920;12.050;2023-05-10T08:51:00;6.97;;;5.53;;
13122;SDS011;6627;50.920;12.050;2023-05-10T08:53:30;6.73;;;6.13;;
13122;SDS011;6627;50.920;12.050;2023-05-10T08:56:02;7.23;;;5.87;;
13122;SDS011;6627;50.920;12.050;2023-05-10T08:58:31;6.10;;;5.50;;
13122;SDS011;6627;50.920;12.050;2023-05-10T09:00:59;7.37;;;6.60;;
13122;SDS011;6627;50.920;12.050;2023-05-10T09:03:27;7.27;;;6.57;;
13122;SDS011;6627;50.920;12.050;2023-05-10T09:05:57;6.70;;;5.90;;
13122;SDS011;6627;50.920;12.050;2023-05-10T09:08:25;7.23;;;6.43;;
13122;SDS011;6627;50.920;12.050;2023-05-10T09:10:54;6.83;;;6.23;;
13122;SDS011;6627;50.920;12.050;2023-05-10T09:13:23;7.03;;;6.40;;
13122;SDS011;6627;50.920;12.050;2023-05-10T09:15:51;8.60;;;6.40;;
13122;SDS011;6627;50.920;12.050;2023-05-10T09:18:20;10.60;;;6.77;;
13122;SDS011;6627;50.920;12.050;2023-05-10T09:20:50;6.97;;;6.37;;
13122;SDS011;6627;50.920;12.050;2023-05-10T09:23:17;7.10;;;6.40;;
13122;SDS011;6627;50.920;12.050;2023-05-10T09:25:45;6.77;;;6.03;;
13122;SDS011;6627;50.920;12.050;2023-05-10T09:28:13;7.40;;;6.70;;
13122;SDS011;6627;50.920;12.050;2023-05-10T09:30:40;7.60;;;6.80;;
13122;SDS011;6627;50.920;12.050;2023-05-10T09:33:08;7.60;;;6.90;;
13122;SDS011;6627;50.920;12.050;2023-05-10T09:35:35;7.17;;;6.40;;
13122;SDS011;6627;50.920;12.050;2023-05-10T09:38:06;7.70;;;6.90;;
13122;SDS011;6627;50.920;12.050;2023-05-10T09:40:34;7.27;;;6.57;;
13122;SDS011;6627;50.920;12.050;2023-05-10T09:43:02;7.97;;;6.67;;
13122;SDS011;6627;50.920;12.050;2023-05-10T09:45:34;7.63;;;6.70;;
13122;SDS011;6627;50.920;12.050;2023-05-10T09:48:02;7.70;;;7.00;;
13122;SDS011;6627;50.920;12.050;2023-05-10T09:50:30;7.90;;;7.10;;
13122;SDS011;6627;50.920;12.050;2023-05-10T09:52:58;8.10;;;7.30;;
13122;SDS011;6627;50.920;12.050;2023-05-10T09:55:39;8.07;;;7.27;;
13122;SDS011;6627;50.920;12.050;2023-05-10T09:58:10;8.87;;;7.97;;
13122;SDS011;6627;50.920;12.050;2023-05-10T10:00:38;7.90;;;7.17;;
13122;SDS011;6627;50.920;12.050;2023-05-10T10:03:11;8.43;;;7.63;;
13122;SDS011;6627;50.920;12.050;2023-05-10T10:05:41;9.93;;;7.53;;
13122;SDS011;6627;50.920;12.050;2023-05-10T10:08:10;9.10;;;8.30;;
13122;SDS011;6627;50.920;12.050;2023-05-10T10:10:40;9.50;;;7.87;;
13122;SDS011;6627;50.920;12.050;2023-05-10T10:13:10;9.97;;;8.97;;
13122;SDS011;6627;50.920;12.050;2023-05-10T10:15:37;9.43;;;8.53;;
13122;SDS011;6627;50.920;12.050;2023-05-10T10:18:05;10.13;;;9.13;;
13122;SDS011;6627;50.920;12.050;2023-05-10T10:20:38;9.07;;;8.27;;
13122;SDS011;6627;50.920;12.050;2023-05-10T10:23:07;9.70;;;8.43;;
13122;SDS011;6627;50.920;12.050;2023-05-10T10:25:35;10.07;;;9.00;;
13122;SDS011;6627;50.920;12.050;2023-05-10T10:28:08;11.47;;;9.60;;
13122;SDS011;6627;50.920;12.050;2023-05-10T10:30:51;9.40;;;8.40;;
13122;SDS011;6627;50.920;12.050;2023-05-10T10:33:33;10.40;;;9.30;;
13122;SDS011;6627;50.920;12.050;2023-05-10T10:36:13;10.77;;;9.07;;
13122;SDS011;6627;50.920;12.050;2023-05-10T10:38:54;9.50;;;8.60;;
13122;SDS011;6627;50.920;12.050;2023-05-10T10:41:30;9.53;;;8.63;;
13122;SDS011;6627;50.920;12.050;2023-05-10T10:47:04;11.63;;;9.07;;
13122;SDS011;6627;50.920;12.050;2023-05-10T10:49:43;10.20;;;9.17;;
13122;SDS011;6627;50.920;12.050;2023-05-10T10:52:24;9.87;;;8.97;;
13122;SDS011;6627;50.920;12.050;2023-05-10T10:54:58;10.83;;;9.47;;
13122;SDS011;6627;50.920;12.050;2023-05-10T10:57:31;10.57;;;9.50;;
13122;SDS011;6627;50.920;12.050;2023-05-10T11:00:20;11.40;;;10.30;;
13122;SDS011;6627;50.920;12.050;2023-05-10T11:02:54;10.60;;;9.60;;
13122;SDS011;6627;50.920;12.050;2023-05-10T11:05:26;10.37;;;9.37;;
13122;SDS011;6627;50.920;12.050;2023-05-10T11:08:14;9.70;;;8.70;;
13122;SDS011;6627;50.920;12.050;2023-05-10T11:10:54;10.03;;;9.03;;
13122;SDS011;6627;50.920;12.050;2023-05-10T11:13:33;10.60;;;8.70;;
13122;SDS011;6627;50.920;12.050;2023-05-10T11:16:13;10.67;;;9.23;;
13122;SDS011;6627;50.920;12.050;2023-05-10T11:18:57;10.60;;;9.60;;
13122;SDS011;6627;50.920;12.050;2023-05-10T11:21:28;10.13;;;8.63;;
13122;SDS011;6627;50.920;12.050;2023-05-10T11:23:57;10.83;;;9.40;;
13122;SDS011;6627;50.920;12.050;2023-05-10T11:26:30;11.10;;;9.57;;
13122;SDS011;6627;50.920;12.050;2023-05-10T11:28:59;10.80;;;9.70;;
13122;SDS011;6627;50.920;12.050;2023-05-10T11:31:28;10.87;;;9.50;;
13122;SDS011;6627;50.920;12.050;2023-05-10T11:33:56;9.80;;;8.90;;
13122;SDS011;6627;50.920;12.050;2023-05-10T11:36:27;9.67;;;8.77;;
13122;SDS011;6627;50.920;12.050;2023-05-10T11:38:59;9.40;;;8.40;;
13122;SDS011;6627;50.920;12.050;2023-05-10T11:41:28;8.83;;;7.80;;
13122;SDS011;6627;50.920;12.050;2023-05-10T11:43:57;8.10;;;7.30;;
13122;SDS011;6627;50.920;12.050;2023-05-10T11:46:25;8.73;;;7.93;;
13122;SDS011;6627;50.920;12.050;2023-05-10T11:48:55;8.97;;;8.13;;
13122;SDS011;6627;50.920;12.050;2023-05-10T11:51:29;9.73;;;8.70;;
13122;SDS011;6627;50.920;12.050;2023-05-10T11:54:05;9.50;;;8.60;;
13122;SDS011;6627;50.920;12.050;2023-05-10T11:56:35;9.03;;;8.23;;
13122;SDS011;6627;50.920;12.050;2023-05-10T11:59:03;8.80;;;8.00;;
13122;SDS011;6627;50.920;12.050;2023-05-10T12:01:32;8.83;;;7.93;;
13122;SDS011;6627;50.920;12.050;2023-05-10T12:04:00;8.57;;;7.77;;
13122;SDS011;6627;50.920;12.050;2023-05-10T12:06:29;9.50;;;8.37;;
13122;SDS011;6627;50.920;12.050;2023-05-10T12:09:05;7.57;;;6.97;;
13122;SDS011;6627;50.920;12.050;2023-05-10T12:11:36;7.97;;;7.20;;
13122;SDS011;6627;50.920;12.050;2023-05-10T12:14:06;8.77;;;7.80;;
13122;SDS011;6627;50.920;12.050;2023-05-10T12:16:36;9.43;;;7.67;;
13122;SDS011;6627;50.920;12.050;2023-05-10T12:19:03;8.40;;;7.10;;
13122;SDS011;6627;50.920;12.050;2023-05-10T12:21:32;7.37;;;6.67;;
13122;SDS011;6627;50.920;12.050;2023-05-10T12:24:01;8.07;;;7.27;;
13122;SDS011;6627;50.920;12.050;2023-05-10T12:26:30;7.07;;;6.37;;
13122;SDS011;6627;50.920;12.050;2023-05-10T12:29:11;7.43;;;6.73;;
13122;SDS011;6627;50.920;12.050;2023-05-10T12:31:52;7.67;;;7.00;;
13122;SDS011;6627;50.920;12.050;2023-05-10T12:34:25;7.37;;;6.67;;
13122;SDS011;6627;50.920;12.050;2023-05-10T12:36:54;7.70;;;6.87;;
13122;SDS011;6627;50.920;12.050;2023-05-10T12:39:22;6.93;;;6.23;;
13122;SDS011;6627;50.920;12.050;2023-05-10T12:41:50;6.83;;;6.13;;
13122;SDS011;6627;50.920;12.050;2023-05-10T12:44:18;7.87;;;7.07;;
13122;SDS011;6627;50.920;12.050;2023-05-10T12:46:45;6.83;;;6.20;;
13122;SDS011;6627;50.920;12.050;2023-05-10T12:49:14;7.43;;;6.73;;
13122;SDS011;6627;50.920;12.050;2023-05-10T12:51:42;7.67;;;6.23;;
13122;SDS011;6627;50.920;12.050;2023-05-10T12:54:09;7.83;;;6.90;;
13122;SDS011;6627;50.920;12.050;2023-05-10T12:56:37;6.83;;;6.27;;
13122;SDS011;6627;50.920;12.050;2023-05-10T12:59:06;6.30;;;5.70;;
13122;SDS011;6627;50.920;12.050;2023-05-10T13:01:34;6.50;;;5.90;;
13122;SDS011;6627;50.920;12.050;2023-05-10T13:04:01;6.57;;;5.97;;
13122;SDS011;6627;50.920;12.050;2023-05-10T13:06:30;6.90;;;6.20;;
13122;SDS011;6627;50.920;12.050;2023-05-10T13:08:58;7.57;;;5.83;;
13122;SDS011;6627;50.920;12.050;2023-05-10T13:11:25;5.80;;;5.30;;
13122;SDS011;6627;50.920;12.050;2023-05-10T13:13:53;5.73;;;5.23;;
13122;SDS011;6627;50.920;12.050;2023-05-10T13:16:21;6.00;;;5.50;;
13122;SDS011;6627;50.920;12.050;2023-05-10T13:18:49;6.90;;;6.20;;
13122;SDS011;6627;50.920;12.050;2023-05-10T13:21:17;7.73;;;5.60;;
13122;SDS011;6627;50.920;12.050;2023-05-10T13:23:46;5.50;;;4.20;;
13122;SDS011;6627;50.920;12.050;2023-05-10T13:26:14;4.37;;;3.97;;
13122;SDS011;6627;50.920;12.050;2023-05-10T13:28:43;5.20;;;3.57;;
13122;SDS011;6627;50.920;12.050;2023-05-10T13:31:12;5.60;;;3.77;;
13122;SDS011;6627;50.920;12.050;2023-05-10T13:33:40;4.53;;;3.80;;
13122;SDS011;6627;50.920;12.050;2023-05-10T13:36:08;3.93;;;3.53;;
13122;SDS011;6627;50.920;12.050;2023-05-10T13:38:35;6.07;;;4.10;;
13122;SDS011;6627;50.920;12.050;2023-05-10T13:41:04;4.43;;;3.90;;
13122;SDS011;6627;50.920;12.050;2023-05-10T13:43:32;4.30;;;3.80;;
13122;SDS011;6627;50.920;12.050;2023-05-10T13:45:59;4.60;;;3.57;;
13122;SDS011;6627;50.920;12.050;2023-05-10T13:48:28;7.03;;;3.87;;
13122;SDS011;6627;50.920;12.050;2023-05-10T13:50:57;5.93;;;4.50;;
13122;SDS011;6627;50.920;12.050;2023-05-10T13:53:25;5.47;;;4.37;;
13122;SDS011;6627;50.920;12.050;2023-05-10T13:55:52;4.63;;;4.23;;
13122;SDS011;6627;50.920;12.050;2023-05-10T13:58:21;4.40;;;4.00;;
13122;SDS011;6627;50.920;12.050;2023-05-10T14:00:49;4.27;;;3.67;;
13122;SDS011;6627;50.920;12.050;2023-05-10T14:03:16;4.43;;;3.40;;
13122;SDS011;6627;50.920;12.050;2023-05-10T14:05:44;4.40;;;4.00;;
13122;SDS011;6627;50.920;12.050;2023-05-10T14:08:22;5.03;;;4.50;;
13122;SDS011;6627;50.920;12.050;2023-05-10T14:10:52;10.23;;;3.50;;
13122;SDS011;6627;50.920;12.050;2023-05-10T14:13:42;3.30;;;2.60;;
13122;SDS011;6627;50.920;12.050;2023-05-10T14:16:10;4.93;;;2.70;;
13122;SDS011;6627;50.920;12.050;2023-05-10T14:18:40;4.77;;;3.33;;
13122;SDS011;6627;50.920;12.050;2023-05-10T14:21:07;6.77;;;2.93;;
13122;SDS011;6627;50.920;12.050;2023-05-10T14:23:36;8.97;;;3.37;;
13122;SDS011;6627;50.920;12.050;2023-05-10T14:26:04;9.07;;;3.47;;
13122;SDS011;6627;50.920;12.050;2023-05-10T14:28:32;7.23;;;3.60;;
13122;SDS011;6627;50.920;12.050;2023-05-10T14:31:16;5.13;;;3.63;;
13122;SDS011;6627;50.920;12.050;2023-05-10T14:34:05;5.60;;;4.47;;
13122;SDS011;6627;50.920;12.050;2023-05-10T14:36:32;10.20;;;4.60;;
13122;SDS011;6627;50.920;12.050;2023-05-10T14:39:00;8.10;;;4.80;;
13122;SDS011;6627;50.920;12.050;2023-05-10T14:41:28;7.83;;;6.23;;
13122;SDS011;6627;50.920;12.050;2023-05-10T14:43:56;8.33;;;5.63;;
13122;SDS011;6627;50.920;12.050;2023-05-10T14:46:25;8.07;;;7.13;;
13122;SDS011;6627;50.920;12.050;2023-05-10T14:48:53;7.53;;;6.60;;
13122;SDS011;6627;50.920;12.050;2023-05-10T14:51:21;7.27;;;6.57;;
13122;SDS011;6627;50.920;12.050;2023-05-10T14:53:48;7.23;;;6.50;;
13122;SDS011;6627;50.920;12.050;2023-05-10T14:56:16;6.70;;;6.10;;
13122;SDS011;6627;50.920;12.050;2023-05-10T14:58:44;6.60;;;6.00;;
13122;SDS011;6627;50.920;12.050;2023-05-10T15:01:32;5.57;;;5.07;;
13122;SDS011;6627;50.920;12.050;2023-05-10T15:04:02;5.60;;;4.63;;
13122;SDS011;6627;50.920;12.050;2023-05-10T15:06:31;4.87;;;4.37;;
13122;SDS011;6627;50.920;12.050;2023-05-10T15:08:59;4.07;;;3.70;;
13122;SDS011;6627;50.920;12.050;2023-05-10T15:11:29;4.47;;;4.10;;